Swaledale, Iowa
Current Conditions -  °F | °C
As of 11:12 PM on Saturday 20 Dec 2014 (Local Time) from KMCW Reporting Station
Moderate Fog Moderate Fog  
Wind Chill: -5°   Ceiling: 200
Heat Index:   Visibility: 0.5mi
Dew Point: -1°   Wind: 13mph
Humidity: 96%   Direction: 150°SSE
Pressure: 30.08"   Gusts: NA
Location:  42.98°N, 93.32°W
Report Text: KMCW 210512Z AUTO 15011KT 1/2SM FG VV002 00/M01 A3008 RMK AO2 I1001 T00001006 $
Loading
Personal Weather Stations






























Interactive Weather Map New forecast layout! Learn more

10-Day Weather Forecast

Advertisements
Track Severe Weather on mobile